createdAt,value
2022-10-20T00:01:02.562Z,102272.84
2022-10-20T00:03:29.764Z,102273.50
2022-10-20T00:06:08.232Z,102272.84
2022-10-20T00:08:36.887Z,102270.19
2022-10-20T00:11:05.249Z,102264.25
2022-10-20T00:13:32.348Z,102261.59
2022-10-20T00:16:00.401Z,102252.97
2022-10-20T00:18:28.035Z,102255.63
2022-10-20T00:20:55.423Z,102252.28
2022-10-20T00:23:22.927Z,102257.59
2022-10-20T00:26:02.116Z,102253.44
2022-10-20T00:28:29.316Z,102248.97
2022-10-20T00:30:56.713Z,102242.03
2022-10-20T00:33:23.949Z,102243.66
2022-10-20T00:35:50.995Z,102238.38
2022-10-20T00:40:52.180Z,102235.72
2022-10-20T00:43:19.704Z,102229.41
2022-10-20T00:45:56.003Z,102223.47
2022-10-20T00:48:35.700Z,102215.81
2022-10-20T00:51:02.923Z,102208.53
2022-10-20T00:53:30.322Z,102210.34
2022-10-20T00:56:00.400Z,102208.84
2022-10-20T00:58:29.012Z,102214.53
2022-10-20T01:00:59.584Z,102200.94
2022-10-20T01:03:36.445Z,102198.09
2022-10-20T01:06:04.312Z,102192.97
2022-10-20T01:08:31.352Z,102193.28
2022-10-20T01:11:15.875Z,102192.00
2022-10-20T01:14:00.130Z,102185.03
2022-10-20T01:16:39.247Z,102178.41
2022-10-20T01:19:34.293Z,102168.47
2022-10-20T01:22:23.703Z,102167.13
2022-10-20T01:25:12.656Z,102161.84
2022-10-20T01:27:44.532Z,102166.81
2022-10-20T01:30:15.488Z,102161.50
2022-10-20T01:33:09.734Z,102165.81
2022-10-20T01:35:52.390Z,102151.91
2022-10-20T01:38:30.558Z,102150.25
2022-10-20T01:41:08.296Z,102151.91
2022-10-20T01:43:41.786Z,102149.91
2022-10-20T01:46:13.032Z,102151.22
2022-10-20T01:48:41.255Z,102157.88
2022-10-20T01:51:10.191Z,102156.19
2022-10-20T01:53:37.337Z,102150.06
2022-10-20T01:56:06.942Z,102146.25
2022-10-20T01:59:05.660Z,102132.34
2022-10-20T02:01:58.292Z,102137.00
2022-10-20T02:04:35.345Z,102129.69
2022-10-20T02:07:13.307Z,102132.66
2022-10-20T02:09:48.356Z,102126.72
2022-10-20T02:12:22.631Z,102119.78
2022-10-20T02:14:53.060Z,102117.78
2022-10-20T02:17:21.269Z,102110.47
2022-10-20T02:19:53.090Z,102107.81
2022-10-20T02:22:21.629Z,102099.22
2022-10-20T02:24:49.811Z,102101.88
2022-10-20T02:27:24.304Z,102091.25
2022-10-20T02:29:57.303Z,102089.59
2022-10-20T02:32:25.292Z,102086.16
2022-10-20T02:34:52.265Z,102082.66
2022-10-20T02:37:19.311Z,102087.97
2022-10-20T02:39:46.391Z,102092.75
2022-10-20T02:42:13.395Z,102079.84
2022-10-20T02:44:40.448Z,102080.84
2022-10-20T02:47:08.765Z,102077.69
2022-10-20T02:49:35.833Z,102071.09
2022-10-20T02:52:02.798Z,102071.59
2022-10-20T02:54:29.736Z,102066.16
2022-10-20T02:56:56.716Z,102073.59
2022-10-20T02:59:23.678Z,102066.97
2022-10-20T03:01:52.218Z,102070.78
2022-10-20T03:04:20.557Z,102068.47
2022-10-20T03:06:47.526Z,102069.78
2022-10-20T03:09:14.476Z,102067.66
2022-10-20T03:11:41.366Z,102063.50
2022-10-20T03:14:08.486Z,102060.22
2022-10-20T03:16:35.427Z,102058.53
2022-10-20T03:19:05.288Z,102056.22
2022-10-20T03:21:35.744Z,102050.22
2022-10-20T03:24:02.796Z,102039.63
2022-10-20T03:26:29.725Z,102041.34
2022-10-20T03:28:56.664Z,102038.84
2022-10-20T03:31:23.663Z,102041.63
2022-10-20T03:33:50.577Z,102037.50
2022-10-20T03:36:17.523Z,102030.88
2022-10-20T03:38:45.793Z,102030.72
2022-10-20T03:41:12.805Z,102027.41
2022-10-20T03:43:40.012Z,102015.34
2022-10-20T03:46:09.432Z,102010.03
2022-10-20T03:48:38.158Z,102002.25
2022-10-20T03:51:06.738Z,102008.38
2022-10-20T03:53:33.748Z,102000.75
2022-10-20T03:56:06.208Z,101990.31
2022-10-20T03:58:33.257Z,101985.66
2022-10-20T04:01:00.248Z,101987.81
2022-10-20T04:03:27.206Z,101980.38
2022-10-20T04:05:54.228Z,101982.38
2022-10-20T04:08:21.165Z,101975.41
2022-10-20T04:10:48.145Z,101982.69
2022-10-20T04:13:16.385Z,101976.72
2022-10-20T04:15:43.378Z,101965.94
2022-10-20T04:18:10.275Z,101971.41
2022-10-20T04:20:39.332Z,101961.16
2022-10-20T04:23:09.140Z,101955.88
2022-10-20T04:25:39.592Z,101952.06
2022-10-20T04:28:06.483Z,101956.22
2022-10-20T04:30:34.712Z,101945.63
2022-10-20T04:33:01.647Z,101949.09
2022-10-20T04:35:28.537Z,101944.16
2022-10-20T04:37:55.452Z,101924.81
2022-10-20T04:40:22.392Z,101910.75
2022-10-20T04:42:49.277Z,101905.47
2022-10-20T04:45:16.556Z,101908.75
2022-10-20T04:47:44.838Z,101901.66
2022-10-20T04:50:11.779Z,101899.53
2022-10-20T04:52:38.686Z,101912.25
2022-10-20T04:55:06.707Z,101915.56
2022-10-20T04:57:34.058Z,101909.44
2022-10-20T05:00:01.164Z,101896.03
2022-10-20T05:02:28.085Z,101896.72
2022-10-20T05:04:56.331Z,101895.72
2022-10-20T05:07:23.309Z,101886.47
2022-10-20T05:09:50.227Z,101879.84
2022-10-20T05:12:17.130Z,101889.75
2022-10-20T05:14:44.036Z,101894.38
2022-10-20T05:17:10.930Z,101880.31
2022-10-20T05:19:37.844Z,101877.03
2022-10-20T05:22:06.169Z,101861.81
2022-10-20T05:24:33.087Z,101863.97
2022-10-20T05:27:00.020Z,101868.94
2022-10-20T05:29:26.987Z,101855.53
2022-10-20T05:31:53.896Z,101851.09
2022-10-20T05:34:20.846Z,101849.59
2022-10-20T05:36:47.774Z,101857.38
2022-10-20T05:39:16.057Z,101851.09
2022-10-20T05:41:42.960Z,101848.13
2022-10-20T05:44:12.963Z,101843.81
2022-10-20T05:46:41.643Z,101842.00
2022-10-20T05:49:14.126Z,101841.16
2022-10-20T05:51:41.488Z,101845.81
2022-10-20T05:54:12.644Z,101840.69
2022-10-20T05:56:41.598Z,101844.16
2022-10-20T05:59:09.956Z,101841.00
2022-10-20T06:01:47.480Z,101841.66
2022-10-20T06:04:16.916Z,101851.41
2022-10-20T06:06:44.280Z,101844.31
2022-10-20T06:09:12.511Z,101847.28
2022-10-20T06:11:41.056Z,101839.53
2022-10-20T06:14:09.256Z,101853.41
2022-10-20T06:16:36.586Z,101844.50
2022-10-20T06:19:05.136Z,101841.34
2022-10-20T06:21:34.801Z,101848.75
2022-10-20T06:24:04.723Z,101844.00
2022-10-20T06:26:36.206Z,101846.47
2022-10-20T06:29:06.319Z,101842.19
2022-10-20T06:31:35.498Z,101835.56
2022-10-20T06:34:06.064Z,101836.41
2022-10-20T06:36:36.007Z,101829.31
2022-10-20T06:39:06.246Z,101834.22
2022-10-20T06:41:34.199Z,101820.53
2022-10-20T06:44:01.170Z,101816.91
2022-10-20T06:46:31.533Z,101807.97
2022-10-20T06:49:00.872Z,101802.53
2022-10-20T06:51:28.070Z,101809.13
2022-10-20T06:53:55.211Z,101804.16
2022-10-20T06:56:24.574Z,101813.75
2022-10-20T06:58:55.029Z,101806.81
2022-10-20T07:01:24.260Z,101814.06
2022-10-20T07:03:56.054Z,101813.75
2022-10-20T07:06:30.818Z,101805.47
2022-10-20T07:08:59.383Z,101796.06
2022-10-20T07:11:29.518Z,101790.78
2022-10-20T07:13:59.006Z,101782.00
2022-10-20T07:16:29.110Z,101789.63
2022-10-20T07:18:57.885Z,101787.94
2022-10-20T07:21:30.817Z,101774.22
2022-10-20T07:24:03.354Z,101771.19
2022-10-20T07:26:33.091Z,101770.50
2022-10-20T07:29:01.532Z,101754.94
2022-10-20T07:31:34.794Z,101743.19
2022-10-20T07:34:23.888Z,101738.22
2022-10-20T07:36:52.998Z,101745.13
2022-10-20T07:39:20.374Z,101744.78
2022-10-20T07:41:48.518Z,101750.72
2022-10-20T07:44:16.540Z,101739.81
2022-10-20T07:46:43.753Z,101744.75
2022-10-20T07:51:59.425Z,101737.56
2022-10-20T07:54:26.414Z,101724.34
2022-10-20T07:56:53.403Z,101729.56
2022-10-20T07:59:20.429Z,101734.75
2022-10-20T08:01:47.858Z,101723.53
2022-10-20T08:04:16.191Z,101726.28
2022-10-20T08:06:43.150Z,101731.41
2022-10-20T08:09:11.222Z,101725.16
2022-10-20T08:11:38.215Z,101726.81
2022-10-20T08:14:05.214Z,101732.78
2022-10-20T08:16:46.749Z,101726.09
2022-10-20T08:21:56.208Z,101724.56
2022-10-20T08:24:23.190Z,101724.97
2022-10-20T08:26:50.248Z,101725.31
2022-10-20T08:29:17.291Z,101730.91
2022-10-20T08:31:44.807Z,101728.03
2022-10-20T08:34:11.881Z,101722.47
2022-10-20T08:36:38.916Z,101714.81
2022-10-20T08:39:07.191Z,101720.03
2022-10-20T08:42:07.546Z,101710.66
2022-10-20T08:44:32.303Z,101719.81
2022-10-20T08:47:03.320Z,101700.16
2022-10-20T08:49:34.990Z,101696.16
2022-10-20T08:52:02.683Z,101684.13
2022-10-20T08:54:34.181Z,101682.75
2022-10-20T08:57:01.279Z,101694.75
2022-10-20T08:59:34.229Z,101689.94
2022-10-20T09:02:02.989Z,101680.72
2022-10-20T09:04:38.371Z,101690.56
2022-10-20T09:07:20.270Z,101683.00
2022-10-20T09:09:48.858Z,101683.03
2022-10-20T09:12:18.006Z,101681.03
2022-10-20T09:14:44.961Z,101676.38
2022-10-20T09:17:17.837Z,101677.09
2022-10-20T09:19:52.135Z,101668.84
2022-10-20T09:22:33.343Z,101666.34
2022-10-20T09:25:05.086Z,101645.78
2022-10-20T09:27:36.402Z,101638.78
2022-10-20T09:30:16.388Z,101637.41
2022-10-20T09:32:47.091Z,101633.66
2022-10-20T09:35:36.874Z,101640.84
2022-10-20T09:38:19.544Z,101631.81
2022-10-20T09:41:10.184Z,101626.03
2022-10-20T09:43:41.288Z,101622.75
2022-10-20T09:46:11.534Z,101608.41
2022-10-20T09:48:46.993Z,101621.97
2022-10-20T09:51:19.276Z,101621.25
2022-10-20T09:53:55.270Z,101599.63
2022-10-20T09:56:34.508Z,101599.16
2022-10-20T09:59:06.557Z,101591.25
2022-10-20T10:01:33.868Z,101584.09
2022-10-20T10:04:02.026Z,101585.97
2022-10-20T10:06:46.116Z,101590.44
2022-10-20T10:09:30.971Z,101593.31
2022-10-20T10:12:03.792Z,101603.25
2022-10-20T10:14:33.469Z,101596.66
2022-10-20T10:17:01.536Z,101597.50
2022-10-20T10:19:31.804Z,101593.44
2022-10-20T10:22:02.679Z,101578.97
2022-10-20T10:24:43.506Z,101581.63
2022-10-20T10:27:25.606Z,101576.31
2022-10-20T10:29:54.031Z,101585.78
2022-10-20T10:32:26.692Z,101564.50
2022-10-20T10:35:17.666Z,101569.41
2022-10-20T10:37:45.960Z,101566.50
2022-10-20T10:40:17.903Z,101556.69
2022-10-20T10:43:05.547Z,101539.88
2022-10-20T10:45:51.407Z,101533.72
2022-10-20T10:49:04.668Z,101538.84
2022-10-20T10:51:51.702Z,101526.53
2022-10-20T10:54:43.730Z,101516.31
2022-10-20T10:57:24.204Z,101508.72
2022-10-20T10:59:53.608Z,101506.66
2022-10-20T11:03:00.599Z,101480.41
2022-10-20T11:05:58.994Z,101467.38
2022-10-20T11:09:03.293Z,101463.78
2022-10-20T11:11:49.003Z,101466.63
2022-10-20T11:14:31.317Z,101479.75
2022-10-20T11:17:23.144Z,101474.00
2022-10-20T11:20:11.983Z,101461.75
2022-10-20T11:22:55.409Z,101444.09
2022-10-20T11:25:34.052Z,101443.63
2022-10-20T11:28:01.536Z,101431.28
2022-10-20T11:30:33.743Z,101434.34
2022-10-20T11:33:13.000Z,101450.09
2022-10-20T11:35:46.948Z,101442.25
2022-10-20T11:38:23.708Z,101442.63
2022-10-20T11:41:00.653Z,101428.66
2022-10-20T11:43:36.842Z,101412.75
2022-10-20T11:46:11.522Z,101415.91
2022-10-20T11:48:48.938Z,101416.06
2022-10-20T11:52:01.558Z,101414.06
2022-10-20T11:55:02.403Z,101409.16
2022-10-20T11:57:55.390Z,101411.00
2022-10-20T12:00:57.627Z,101413.00
2022-10-20T12:04:24.285Z,101400.03
2022-10-20T12:07:24.714Z,101406.81
2022-10-20T12:10:26.408Z,101391.53
2022-10-20T12:13:06.520Z,101376.69
2022-10-20T12:15:33.567Z,101362.34
2022-10-20T12:18:06.763Z,101364.13
2022-10-20T12:21:01.468Z,101355.88
2022-10-20T12:24:03.016Z,101358.59
2022-10-20T12:26:43.864Z,101358.13
2022-10-20T12:29:52.123Z,101354.16
2022-10-20T12:33:00.825Z,101344.91
2022-10-20T12:35:59.657Z,101345.06
2022-10-20T12:38:30.546Z,101345.22
2022-10-20T12:41:01.279Z,101366.88
2022-10-20T12:43:37.467Z,101350.13
2022-10-20T12:46:11.575Z,101343.03
2022-10-20T12:48:45.894Z,101336.41
2022-10-20T12:51:22.976Z,101335.66
2022-10-20T12:54:02.381Z,101348.59
2022-10-20T12:56:37.608Z,101348.13
2022-10-20T12:59:34.566Z,101335.66
2022-10-20T13:02:45.314Z,101335.28
2022-10-20T13:05:42.526Z,101336.13
2022-10-20T13:08:32.559Z,101333.75
2022-10-20T13:11:56.700Z,101342.31
2022-10-20T13:14:35.751Z,101334.88
2022-10-20T13:17:16.468Z,101341.06
2022-10-20T13:19:49.642Z,101338.69
2022-10-20T13:22:44.403Z,101341.16
2022-10-20T13:25:26.160Z,101338.66
2022-10-20T13:28:04.539Z,101352.81
2022-10-20T13:30:35.494Z,101348.28
2022-10-20T13:34:02.148Z,101337.38
2022-10-20T13:36:19.193Z,101335.38
2022-10-20T13:38:57.840Z,101336.78
2022-10-20T13:41:41.638Z,101339.09
2022-10-20T13:44:31.706Z,101338.03
2022-10-20T13:47:17.915Z,101341.75
2022-10-20T13:50:00.029Z,101328.84
2022-10-20T13:52:33.155Z,101322.47
2022-10-20T13:55:01.591Z,101320.22
2022-10-20T13:57:33.496Z,101316.38
2022-10-20T14:00:15.978Z,101316.19
2022-10-20T14:02:54.675Z,101304.91
2022-10-20T14:05:23.711Z,101308.78
2022-10-20T14:07:51.064Z,101309.81
2022-10-20T14:10:31.261Z,101310.66
2022-10-20T14:13:02.470Z,101313.41
2022-10-20T14:15:35.047Z,101315.66
2022-10-20T14:18:05.957Z,101322.88
2022-10-20T14:20:38.520Z,101313.84
2022-10-20T14:23:10.157Z,101312.56
2022-10-20T14:25:38.554Z,101317.03
2022-10-20T14:28:07.597Z,101313.13
2022-10-20T14:30:40.881Z,101317.03
2022-10-20T14:33:15.916Z,101315.41
2022-10-20T14:35:50.912Z,101316.44
2022-10-20T14:38:22.824Z,101311.13
2022-10-20T14:40:52.851Z,101308.06
2022-10-20T14:46:29.891Z,101304.00
2022-10-20T14:48:59.905Z,101304.44
2022-10-20T15:00:18.953Z,101305.69
2022-10-20T15:02:56.030Z,101301.16
2022-10-20T15:05:33.165Z,101306.50
2022-10-20T15:08:15.075Z,101302.22
2022-10-20T15:10:42.574Z,101296.66
2022-10-20T15:13:26.471Z,101318.34
2022-10-20T15:15:56.083Z,101302.53
2022-10-20T15:18:24.917Z,101302.13
2022-10-20T15:20:53.337Z,101293.72
2022-10-20T15:23:22.703Z,101309.09
2022-10-20T15:25:54.476Z,101303.97
2022-10-20T15:28:35.028Z,101301.72
2022-10-20T15:31:05.763Z,101294.91
2022-10-20T15:33:34.500Z,101304.38
2022-10-20T15:36:02.277Z,101301.94
2022-10-20T15:38:29.748Z,101295.81
2022-10-20T15:43:33.948Z,101282.34
2022-10-20T15:46:03.805Z,101271.94
2022-10-20T15:48:32.083Z,101262.72
2022-10-20T15:51:01.181Z,101264.78
2022-10-20T15:53:28.815Z,101274.63
2022-10-20T15:55:56.331Z,101260.69
2022-10-20T15:58:23.778Z,101251.50
2022-10-20T16:00:51.087Z,101244.97
2022-10-20T16:03:18.895Z,101249.06
2022-10-20T16:05:47.460Z,101243.13
2022-10-20T16:08:16.363Z,101251.16
2022-10-20T16:10:44.553Z,101241.91
2022-10-20T16:13:18.232Z,101239.06
2022-10-20T16:15:45.596Z,101236.59
2022-10-20T16:18:13.164Z,101231.50
2022-10-20T16:20:40.817Z,101224.75
2022-10-20T16:26:21.805Z,101233.38
2022-10-20T16:28:49.261Z,101220.06
2022-10-20T16:31:16.988Z,101214.13
2022-10-20T16:33:44.772Z,101221.72
2022-10-20T16:36:16.048Z,101212.94
2022-10-20T16:38:44.093Z,101219.91
2022-10-20T16:41:14.644Z,101234.22
2022-10-20T16:43:46.284Z,101228.91
2022-10-20T16:46:15.797Z,101223.34
2022-10-20T16:48:47.551Z,101226.47
2022-10-20T16:51:16.411Z,101229.72
2022-10-20T16:53:43.963Z,101216.22
2022-10-20T16:56:16.647Z,101208.84
2022-10-20T16:58:50.342Z,101192.88
2022-10-20T17:01:23.069Z,101176.06
2022-10-20T17:03:53.148Z,101179.38
2022-10-20T17:06:22.893Z,101195.78
2022-10-20T17:08:51.750Z,101174.91
2022-10-20T17:11:24.041Z,101167.94
2022-10-20T17:13:53.624Z,101147.50
2022-10-20T17:16:26.195Z,101146.25
2022-10-20T17:18:56.741Z,101166.72
2022-10-20T17:21:24.556Z,101164.66
2022-10-20T17:23:51.496Z,101163.03
2022-10-20T17:26:21.957Z,101158.75
2022-10-20T17:28:49.939Z,101163.88
2022-10-20T17:31:18.733Z,101169.41
2022-10-20T17:33:46.834Z,101171.63
2022-10-20T17:36:15.206Z,101171.63
2022-10-20T17:38:42.981Z,101166.13
2022-10-20T17:41:13.780Z,101160.00
2022-10-20T17:43:41.694Z,101159.34
2022-10-20T17:46:13.016Z,101158.75
2022-10-20T17:48:41.895Z,101168.78
2022-10-20T17:51:12.319Z,101169.19
2022-10-20T17:53:43.476Z,101160.59
2022-10-20T17:56:13.600Z,101154.88
2022-10-20T17:58:44.842Z,101160.19
2022-10-20T18:01:14.819Z,101158.53
2022-10-20T18:03:45.242Z,101139.94
2022-10-20T18:06:15.249Z,101141.38
2022-10-20T18:08:42.559Z,101155.06
2022-10-20T18:11:11.180Z,101167.56
2022-10-20T18:13:38.847Z,101167.16
2022-10-20T18:16:08.662Z,101167.56
2022-10-20T18:18:36.141Z,101150.78
2022-10-20T18:21:06.359Z,101165.91
2022-10-20T18:23:36.005Z,101163.84
2022-10-20T18:26:09.233Z,101156.09
2022-10-20T18:28:41.066Z,101151.22
2022-10-20T18:31:16.974Z,101150.41
2022-10-20T18:33:44.554Z,101142.19
2022-10-20T18:36:15.897Z,101143.00
2022-10-20T18:38:45.696Z,101149.56
2022-10-20T18:41:16.085Z,101143.00
2022-10-20T18:43:47.467Z,101143.00
2022-10-20T18:46:14.932Z,101137.09
2022-10-20T18:48:42.864Z,101131.75
2022-10-20T18:51:13.759Z,101131.16
2022-10-20T18:53:42.950Z,101123.81
2022-10-20T18:56:15.260Z,101101.50
2022-10-20T18:58:47.804Z,101095.59
2022-10-20T19:01:17.145Z,101111.53
2022-10-20T19:03:48.359Z,101094.16
2022-10-20T19:06:20.480Z,101109.06
2022-10-20T19:08:52.587Z,101110.31
2022-10-20T19:11:21.884Z,101107.66
2022-10-20T19:13:48.975Z,101111.34
2022-10-20T19:16:18.772Z,101106.19
2022-10-20T19:18:47.522Z,101112.16
2022-10-20T19:21:16.794Z,101111.31
2022-10-20T19:23:47.309Z,101104.56
2022-10-20T19:26:17.356Z,101105.78
2022-10-20T19:28:48.307Z,101092.09
2022-10-20T19:31:21.327Z,101098.03
2022-10-20T19:33:52.271Z,101089.44
2022-10-20T19:36:21.101Z,101086.59
2022-10-20T19:38:48.557Z,101099.25
2022-10-20T19:41:16.027Z,101090.25
2022-10-20T19:43:43.504Z,101084.53
2022-10-20T19:46:15.153Z,101090.47
2022-10-20T19:48:43.925Z,101085.16
2022-10-20T19:51:11.316Z,101088.22
2022-10-20T19:53:39.896Z,101086.16
2022-10-20T19:56:09.406Z,101082.50
2022-10-20T19:58:41.333Z,101082.06
2022-10-20T20:01:11.536Z,101078.81
2022-10-20T20:03:38.589Z,101077.38
2022-10-20T20:06:08.229Z,101067.34
2022-10-20T20:08:36.206Z,101076.97
2022-10-20T20:11:05.596Z,101074.94
2022-10-20T20:13:32.842Z,101070.44
2022-10-20T20:16:07.186Z,101068.19
2022-10-20T20:18:35.507Z,101062.25
2022-10-20T20:21:05.112Z,101066.38
2022-10-20T20:23:41.320Z,101064.94
2022-10-20T20:26:23.263Z,101066.53
2022-10-20T20:28:52.983Z,101053.84
2022-10-20T20:31:21.499Z,101060.03
2022-10-20T20:33:49.211Z,101051.84
2022-10-20T20:36:16.756Z,101057.75
2022-10-20T20:38:43.885Z,101057.72
2022-10-20T20:41:14.358Z,101051.00
2022-10-20T20:43:45.097Z,101040.34
2022-10-20T20:46:14.917Z,101051.00
2022-10-20T20:48:42.907Z,101046.09
2022-10-20T20:51:11.282Z,101046.06
2022-10-20T20:53:39.763Z,101053.88
2022-10-20T20:56:10.226Z,101043.03
2022-10-20T20:58:37.859Z,101053.44
2022-10-20T21:01:09.133Z,101048.13
2022-10-20T21:03:36.353Z,101045.69
2022-10-20T21:06:04.686Z,101048.13
2022-10-20T21:08:32.899Z,101042.44
2022-10-20T21:11:06.948Z,101046.50
2022-10-20T21:13:35.489Z,101050.38
2022-10-20T21:16:13.580Z,101054.25
2022-10-20T21:18:43.388Z,101062.03
2022-10-20T21:21:14.301Z,101053.84
2022-10-20T21:23:42.093Z,101054.66
2022-10-20T21:26:11.545Z,101043.44
2022-10-20T21:28:38.912Z,101048.97
2022-10-20T21:31:07.097Z,101046.91
2022-10-20T21:33:37.326Z,101049.34
2022-10-20T21:36:08.012Z,101049.75
2022-10-20T21:38:36.978Z,101046.91
2022-10-20T21:41:05.312Z,101043.84
2022-10-20T21:43:34.769Z,101037.50
2022-10-20T21:46:13.858Z,101037.91
2022-10-20T21:48:43.689Z,101038.34
2022-10-20T21:51:14.504Z,101042.81
2022-10-20T21:53:41.736Z,101043.66
2022-10-20T21:56:10.148Z,101020.75
2022-10-20T21:58:37.334Z,101036.09
2022-10-20T22:01:11.533Z,101042.00
2022-10-20T22:03:39.655Z,101040.34
2022-10-20T22:06:10.447Z,101037.09
2022-10-20T22:08:40.442Z,101039.53
2022-10-20T22:11:12.478Z,101048.31
2022-10-20T22:13:39.571Z,101042.81
2022-10-20T22:16:08.821Z,101037.31
2022-10-20T22:18:35.904Z,101057.53
2022-10-20T22:21:06.073Z,101050.38
2022-10-20T22:23:37.438Z,101061.22
2022-10-20T22:26:04.973Z,101049.97
2022-10-20T22:28:32.342Z,101047.94
2022-10-20T22:33:31.333Z,101058.75
2022-10-20T22:35:58.298Z,101051.38
2022-10-20T22:38:25.287Z,101058.34
2022-10-20T22:40:58.475Z,101057.94
2022-10-20T22:43:26.205Z,101059.16
2022-10-20T22:45:53.473Z,101051.19
2022-10-20T22:48:21.414Z,101049.34
2022-10-20T22:50:49.320Z,101046.47
2022-10-20T22:53:16.293Z,101052.22
2022-10-20T22:55:43.265Z,101047.31
2022-10-20T22:58:11.703Z,101036.69
2022-10-20T23:00:39.673Z,101029.53
2022-10-20T23:03:06.915Z,101036.28
2022-10-20T23:05:34.070Z,101040.59
2022-10-20T23:08:01.124Z,101050.16
2022-10-20T23:10:28.424Z,101054.88
2022-10-20T23:12:55.354Z,101046.09
2022-10-20T23:15:23.776Z,101041.81
2022-10-20T23:17:50.723Z,101039.53
2022-10-20T23:20:17.902Z,101046.53
2022-10-20T23:22:47.920Z,101039.16
2022-10-20T23:25:15.042Z,101045.72
2022-10-20T23:27:42.002Z,101044.66
2022-10-20T23:30:10.048Z,101039.56
2022-10-20T23:32:38.355Z,101024.66
2022-10-20T23:35:07.131Z,101046.53
2022-10-20T23:37:34.096Z,101032.19
2022-10-20T23:40:00.986Z,101018.72
2022-10-20T23:42:28.064Z,101017.69
2022-10-20T23:44:54.988Z,101022.59
2022-10-20T23:47:21.883Z,101021.56
2022-10-20T23:49:50.156Z,101011.38
2022-10-20T23:52:17.072Z,101002.75
2022-10-20T23:54:43.972Z,101004.59
2022-10-20T23:57:10.900Z,101003.78
2022-10-20T23:59:37.792Z,101000.28
